sensor_id;sensor_type;location;lat;lon;timestamp;pressure;altitude;pressure_sealevel;temperature;humidity
78855;BME280;68206;59.956;30.234;2023-03-23T00:01:02;99693.94;;;6.50;72.99
78855;BME280;68206;59.956;30.234;2023-03-23T00:03:29;99694.69;;;6.55;73.10
78855;BME280;68206;59.956;30.234;2023-03-23T00:05:57;99690.34;;;6.54;73.31
78855;BME280;68206;59.956;30.234;2023-03-23T00:08:30;99684.16;;;6.55;73.18
78855;BME280;68206;59.956;30.234;2023-03-23T00:10:57;99684.06;;;6.58;73.23
78855;BME280;68206;59.956;30.234;2023-03-23T00:13:28;99673.53;;;6.58;73.57
78855;BME280;68206;59.956;30.234;2023-03-23T00:15:55;99678.91;;;6.55;73.32
78855;BME280;68206;59.956;30.234;2023-03-23T00:18:26;99669.97;;;6.59;72.75
78855;BME280;68206;59.956;30.234;2023-03-23T00:20:55;99677.03;;;6.59;73.57
78855;BME280;68206;59.956;30.234;2023-03-23T00:23:24;99671.00;;;6.55;73.03
78855;BME280;68206;59.956;30.234;2023-03-23T00:25:53;99659.44;;;6.59;73.55
78855;BME280;68206;59.956;30.234;2023-03-23T00:28:23;99658.53;;;6.60;73.64
78855;BME280;68206;59.956;30.234;2023-03-23T00:30:56;99651.41;;;6.64;73.66
78855;BME280;68206;59.956;30.234;2023-03-23T00:33:24;99643.44;;;6.65;73.65
78855;BME280;68206;59.956;30.234;2023-03-23T00:35:53;99651.53;;;6.59;73.42
78855;BME280;68206;59.956;30.234;2023-03-23T00:38:21;99651.53;;;6.59;73.19
78855;BME280;68206;59.956;30.234;2023-03-23T00:40:49;99661.25;;;6.57;72.95
78855;BME280;68206;59.956;30.234;2023-03-23T00:43:17;99638.38;;;6.59;73.30
78855;BME280;68206;59.956;30.234;2023-03-23T00:45:45;99637.50;;;6.59;73.61
78855;BME280;68206;59.956;30.234;2023-03-23T00:48:19;99634.84;;;6.60;73.27
78855;BME280;68206;59.956;30.234;2023-03-23T00:50:47;99632.19;;;6.60;73.80
78855;BME280;68206;59.956;30.234;2023-03-23T00:53:14;99633.09;;;6.59;73.68
78855;BME280;68206;59.956;30.234;2023-03-23T00:55:42;99618.16;;;6.60;73.54
78855;BME280;68206;59.956;30.234;2023-03-23T00:58:09;99604.22;;;6.56;73.72
78855;BME280;68206;59.956;30.234;2023-03-23T01:00:37;99610.16;;;6.63;73.34
78855;BME280;68206;59.956;30.234;2023-03-23T01:03:05;99601.50;;;6.59;73.65
78855;BME280;68206;59.956;30.234;2023-03-23T01:05:35;99596.25;;;6.58;73.88
78855;BME280;68206;59.956;30.234;2023-03-23T01:08:03;99616.34;;;6.62;73.84
78855;BME280;68206;59.956;30.234;2023-03-23T01:10:30;99594.50;;;6.58;73.58
78855;BME280;68206;59.956;30.234;2023-03-23T01:12:59;99577.06;;;6.54;73.30
78855;BME280;68206;59.956;30.234;2023-03-23T01:15:28;99584.16;;;6.52;74.43
78855;BME280;68206;59.956;30.234;2023-03-23T01:17:56;99576.97;;;6.57;74.47
78855;BME280;68206;59.956;30.234;2023-03-23T01:20:24;99563.66;;;6.62;73.41
78855;BME280;68206;59.956;30.234;2023-03-23T01:22:54;99575.97;;;6.61;74.50
78855;BME280;68206;59.956;30.234;2023-03-23T01:25:27;99568.16;;;6.58;74.17
78855;BME280;68206;59.956;30.234;2023-03-23T01:27:54;99567.25;;;6.59;74.51
78855;BME280;68206;59.956;30.234;2023-03-23T01:30:22;99563.59;;;6.63;73.61
78855;BME280;68206;59.956;30.234;2023-03-23T01:32:50;99548.81;;;6.59;74.58
78855;BME280;68206;59.956;30.234;2023-03-23T01:35:18;99572.41;;;6.62;74.07
78855;BME280;68206;59.956;30.234;2023-03-23T01:37:46;99548.69;;;6.62;74.07
78855;BME280;68206;59.956;30.234;2023-03-23T01:40:15;99564.38;;;6.67;73.55
78855;BME280;68206;59.956;30.234;2023-03-23T01:42:43;99552.81;;;6.71;73.31
78855;BME280;68206;59.956;30.234;2023-03-23T01:45:27;99553.72;;;6.70;73.53
78855;BME280;68206;59.956;30.234;2023-03-23T01:47:59;99548.41;;;6.71;73.06
78855;BME280;68206;59.956;30.234;2023-03-23T01:50:33;99538.72;;;6.72;73.71
78855;BME280;68206;59.956;30.234;2023-03-23T01:53:02;99531.75;;;6.71;73.28
78855;BME280;68206;59.956;30.234;2023-03-23T01:55:37;99524.63;;;6.74;73.58
78855;BME280;68206;59.956;30.234;2023-03-23T01:58:08;99525.59;;;6.70;73.52
78855;BME280;68206;59.956;30.234;2023-03-23T02:00:37;99519.44;;;6.71;72.93
78855;BME280;68206;59.956;30.234;2023-03-23T02:03:06;99520.13;;;6.76;73.54
78855;BME280;68206;59.956;30.234;2023-03-23T02:05:38;99518.41;;;6.75;74.15
78855;BME280;68206;59.956;30.234;2023-03-23T02:08:14;99513.13;;;6.75;73.67
78855;BME280;68206;59.956;30.234;2023-03-23T02:10:46;99507.97;;;6.72;74.15
78855;BME280;68206;59.956;30.234;2023-03-23T02:13:13;99495.63;;;6.74;74.45
78855;BME280;68206;59.956;30.234;2023-03-23T02:15:47;99476.25;;;6.75;74.42
78855;BME280;68206;59.956;30.234;2023-03-23T02:18:31;99488.50;;;6.76;74.05
78855;BME280;68206;59.956;30.234;2023-03-23T02:21:25;99484.22;;;6.74;74.35
78855;BME280;68206;59.956;30.234;2023-03-23T02:27:14;99474.34;;;6.80;75.00
78855;BME280;68206;59.956;30.234;2023-03-23T02:29:56;99476.13;;;6.80;73.89
78855;BME280;68206;59.956;30.234;2023-03-23T02:32:47;99467.34;;;6.79;74.11
78855;BME280;68206;59.956;30.234;2023-03-23T02:35:25;99474.44;;;6.77;74.42
78855;BME280;68206;59.956;30.234;2023-03-23T02:37:57;99454.16;;;6.79;74.80
78855;BME280;68206;59.956;30.234;2023-03-23T02:40:30;99450.66;;;6.79;74.81
78855;BME280;68206;59.956;30.234;2023-03-23T02:42:59;99447.13;;;6.80;74.71
78855;BME280;68206;59.956;30.234;2023-03-23T02:45:29;99447.13;;;6.80;74.43
78855;BME280;68206;59.956;30.234;2023-03-23T02:48:01;99433.19;;;6.76;74.90
78855;BME280;68206;59.956;30.234;2023-03-23T02:50:32;99438.28;;;6.81;73.94
78855;BME280;68206;59.956;30.234;2023-03-23T02:53:04;99431.41;;;6.77;75.03
78855;BME280;68206;59.956;30.234;2023-03-23T02:55:34;99431.31;;;6.80;74.39
78855;BME280;68206;59.956;30.234;2023-03-23T02:58:11;99423.28;;;6.83;74.33
78855;BME280;68206;59.956;30.234;2023-03-23T03:00:41;99425.84;;;6.86;74.63
78855;BME280;68206;59.956;30.234;2023-03-23T03:03:12;99428.50;;;6.84;74.28
78855;BME280;68206;59.956;30.234;2023-03-23T03:05:44;99435.50;;;6.85;73.89
78855;BME280;68206;59.956;30.234;2023-03-23T03:08:24;99408.94;;;6.92;73.99
78855;BME280;68206;59.956;30.234;2023-03-23T03:11:00;99412.47;;;6.91;74.71
78855;BME280;68206;59.956;30.234;2023-03-23T03:13:34;99409.84;;;6.91;73.90
78855;BME280;68206;59.956;30.234;2023-03-23T03:16:07;99392.31;;;6.89;74.44
78855;BME280;68206;59.956;30.234;2023-03-23T03:18:44;99394.03;;;6.91;73.61
78855;BME280;68206;59.956;30.234;2023-03-23T03:21:16;99388.81;;;6.89;74.58
78855;BME280;68206;59.956;30.234;2023-03-23T03:23:47;99388.84;;;6.87;74.68
78855;BME280;68206;59.956;30.234;2023-03-23T03:26:17;99381.66;;;6.93;74.07
78855;BME280;68206;59.956;30.234;2023-03-23T03:28:54;99380.81;;;6.92;74.05
78855;BME280;68206;59.956;30.234;2023-03-23T03:31:24;99377.31;;;6.92;74.59
78855;BME280;68206;59.956;30.234;2023-03-23T03:33:54;99379.03;;;6.93;74.03
78855;BME280;68206;59.956;30.234;2023-03-23T03:36:26;99374.53;;;6.95;74.75
78855;BME280;68206;59.956;30.234;2023-03-23T03:39:04;99368.41;;;6.94;74.82
78855;BME280;68206;59.956;30.234;2023-03-23T03:41:33;99356.22;;;6.92;74.36
78855;BME280;68206;59.956;30.234;2023-03-23T03:44:01;99364.00;;;6.95;74.34
78855;BME280;68206;59.956;30.234;2023-03-23T03:46:28;99354.28;;;6.97;74.63
78855;BME280;68206;59.956;30.234;2023-03-23T03:48:57;99349.91;;;6.96;74.36
78855;BME280;68206;59.956;30.234;2023-03-23T03:51:26;99341.09;;;6.97;74.04
78855;BME280;68206;59.956;30.234;2023-03-23T03:53:54;99352.50;;;6.97;74.34
78855;BME280;68206;59.956;30.234;2023-03-23T03:56:23;99346.31;;;6.98;74.36
78855;BME280;68206;59.956;30.234;2023-03-23T03:59:03;99334.91;;;6.98;75.08
78855;BME280;68206;59.956;30.234;2023-03-23T04:01:56;99346.25;;;7.00;75.46
78855;BME280;68206;59.956;30.234;2023-03-23T04:04:24;99332.22;;;6.99;74.75
78855;BME280;68206;59.956;30.234;2023-03-23T04:06:54;99334.78;;;7.01;75.55
78855;BME280;68206;59.956;30.234;2023-03-23T04:09:23;99336.69;;;6.97;75.25
78855;BME280;68206;59.956;30.234;2023-03-23T04:11:52;99336.56;;;7.00;74.82
78855;BME280;68206;59.956;30.234;2023-03-23T04:14:39;99334.78;;;7.01;75.41
78855;BME280;68206;59.956;30.234;2023-03-23T04:17:07;99338.34;;;7.00;75.02
78855;BME280;68206;59.956;30.234;2023-03-23T04:19:36;99326.88;;;7.01;75.40
78855;BME280;68206;59.956;30.234;2023-03-23T04:22:05;99326.81;;;7.02;75.22
78855;BME280;68206;59.956;30.234;2023-03-23T04:24:35;99343.47;;;7.04;75.62
78855;BME280;68206;59.956;30.234;2023-03-23T04:27:06;99332.72;;;7.09;74.95
78855;BME280;68206;59.956;30.234;2023-03-23T04:29:34;99331.13;;;7.05;75.39
78855;BME280;68206;59.956;30.234;2023-03-23T04:32:19;99316.06;;;7.08;75.50
78855;BME280;68206;59.956;30.234;2023-03-23T04:34:51;99329.22;;;7.08;75.23
78855;BME280;68206;59.956;30.234;2023-03-23T04:37:24;99319.38;;;7.13;75.45
78855;BME280;68206;59.956;30.234;2023-03-23T04:39:55;99325.56;;;7.12;74.47
78855;BME280;68206;59.956;30.234;2023-03-23T04:42:29;99322.78;;;7.17;74.98
78855;BME280;68206;59.956;30.234;2023-03-23T04:45:18;99309.50;;;7.18;75.51
78855;BME280;68206;59.956;30.234;2023-03-23T04:47:49;99322.69;;;7.18;75.27
78855;BME280;68206;59.956;30.234;2023-03-23T04:50:31;99310.38;;;7.19;75.09
78855;BME280;68206;59.956;30.234;2023-03-23T04:53:08;99304.84;;;7.25;74.98
78855;BME280;68206;59.956;30.234;2023-03-23T04:55:36;99311.84;;;7.26;74.80
78855;BME280;68206;59.956;30.234;2023-03-23T04:58:06;99302.22;;;7.25;75.47
78855;BME280;68206;59.956;30.234;2023-03-23T05:00:52;99303.03;;;7.27;75.10
78855;BME280;68206;59.956;30.234;2023-03-23T05:03:21;99309.22;;;7.26;74.97
78855;BME280;68206;59.956;30.234;2023-03-23T05:05:51;99313.47;;;7.30;74.87
78855;BME280;68206;59.956;30.234;2023-03-23T05:08:22;99311.69;;;7.31;74.80
78855;BME280;68206;59.956;30.234;2023-03-23T05:10:52;99321.31;;;7.32;75.02
78855;BME280;68206;59.956;30.234;2023-03-23T05:13:20;99316.78;;;7.35;74.98
78855;BME280;68206;59.956;30.234;2023-03-23T05:15:51;99322.06;;;7.35;76.10
78855;BME280;68206;59.956;30.234;2023-03-23T05:18:18;99313.16;;;7.38;76.20
78855;BME280;68206;59.956;30.234;2023-03-23T05:20:47;99313.16;;;7.38;76.54
78855;BME280;68206;59.956;30.234;2023-03-23T05:23:17;99310.50;;;7.38;77.14
78855;BME280;68206;59.956;30.234;2023-03-23T05:25:54;99315.88;;;7.36;77.13
78855;BME280;68206;59.956;30.234;2023-03-23T05:28:23;99310.59;;;7.36;77.46
78855;BME280;68206;59.956;30.234;2023-03-23T05:31:02;99302.59;;;7.38;76.33
78855;BME280;68206;59.956;30.234;2023-03-23T05:33:32;99311.38;;;7.38;76.78
78855;BME280;68206;59.956;30.234;2023-03-23T05:36:08;99313.78;;;7.44;76.16
78855;BME280;68206;59.956;30.234;2023-03-23T05:38:53;99312.19;;;7.40;76.28
78855;BME280;68206;59.956;30.234;2023-03-23T05:41:24;99307.81;;;7.39;76.91
78855;BME280;68206;59.956;30.234;2023-03-23T05:43:52;99316.34;;;7.46;76.41
78855;BME280;68206;59.956;30.234;2023-03-23T05:46:44;99312.00;;;7.45;76.67
78855;BME280;68206;59.956;30.234;2023-03-23T05:49:11;99331.28;;;7.47;77.02
78855;BME280;68206;59.956;30.234;2023-03-23T05:51:40;99325.94;;;7.48;76.90
78855;BME280;68206;59.956;30.234;2023-03-23T05:54:07;99329.44;;;7.49;77.12
78855;BME280;68206;59.956;30.234;2023-03-23T05:56:38;99345.28;;;7.49;76.70
78855;BME280;68206;59.956;30.234;2023-03-23T05:59:15;99339.03;;;7.50;76.94
78855;BME280;68206;59.956;30.234;2023-03-23T06:01:44;99341.59;;;7.53;76.28
78855;BME280;68206;59.956;30.234;2023-03-23T06:04:12;99347.78;;;7.52;76.82
78855;BME280;68206;59.956;30.234;2023-03-23T06:06:53;99350.34;;;7.53;77.01
78855;BME280;68206;59.956;30.234;2023-03-23T06:09:20;99360.78;;;7.56;76.72
78855;BME280;68206;59.956;30.234;2023-03-23T06:12:22;99363.25;;;7.61;77.24
78855;BME280;68206;59.956;30.234;2023-03-23T06:15:06;99367.78;;;7.57;77.04
78855;BME280;68206;59.956;30.234;2023-03-23T06:18:03;99366.75;;;7.61;76.99
78855;BME280;68206;59.956;30.234;2023-03-23T06:20:38;99377.94;;;7.68;76.78
78855;BME280;68206;59.956;30.234;2023-03-23T06:23:29;99378.66;;;7.72;76.40
78855;BME280;68206;59.956;30.234;2023-03-23T06:25:59;99380.19;;;7.77;76.42
78855;BME280;68206;59.956;30.234;2023-03-23T06:28:29;99385.22;;;7.83;76.04
78855;BME280;68206;59.956;30.234;2023-03-23T06:30:58;99383.59;;;7.81;75.86
78855;BME280;68206;59.956;30.234;2023-03-23T06:33:26;99381.63;;;7.86;75.38
78855;BME280;68206;59.956;30.234;2023-03-23T06:36:13;99385.97;;;7.87;74.99
78855;BME280;68206;59.956;30.234;2023-03-23T06:38:57;99377.63;;;7.97;74.81
78855;BME280;68206;59.956;30.234;2023-03-23T06:41:34;99399.59;;;7.98;75.42
78855;BME280;68206;59.956;30.234;2023-03-23T06:44:02;99403.97;;;7.99;74.37
78855;BME280;68206;59.956;30.234;2023-03-23T06:46:31;99392.09;;;8.09;75.13
78855;BME280;68206;59.956;30.234;2023-03-23T06:49:15;99398.88;;;8.16;74.28
78855;BME280;68206;59.956;30.234;2023-03-23T06:51:49;99401.25;;;8.22;73.64
78855;BME280;68206;59.956;30.234;2023-03-23T06:54:16;99413.47;;;8.25;73.63
78855;BME280;68206;59.956;30.234;2023-03-23T06:56:44;99410.44;;;8.35;73.67
78855;BME280;68206;59.956;30.234;2023-03-23T06:59:13;99422.47;;;8.42;73.36
78855;BME280;68206;59.956;30.234;2023-03-23T07:01:40;99407.34;;;8.46;73.37
78855;BME280;68206;59.956;30.234;2023-03-23T07:04:07;99418.50;;;8.53;72.96
78855;BME280;68206;59.956;30.234;2023-03-23T07:06:43;99421.69;;;8.61;72.44
78855;BME280;68206;59.956;30.234;2023-03-23T07:09:11;99423.28;;;8.65;72.71
78855;BME280;68206;59.956;30.234;2023-03-23T07:11:38;99430.13;;;8.69;71.76
78855;BME280;68206;59.956;30.234;2023-03-23T07:14:15;99428.19;;;8.74;72.05
78855;BME280;68206;59.956;30.234;2023-03-23T07:16:42;99431.28;;;8.83;71.67
78855;BME280;68206;59.956;30.234;2023-03-23T07:19:09;99434.50;;;8.90;70.94
78855;BME280;68206;59.956;30.234;2023-03-23T07:21:37;99437.97;;;8.92;70.51
78855;BME280;68206;59.956;30.234;2023-03-23T07:24:04;99438.47;;;9.00;70.59
78855;BME280;68206;59.956;30.234;2023-03-23T07:26:57;99454.47;;;9.17;70.04
78855;BME280;68206;59.956;30.234;2023-03-23T07:29:27;99451.63;;;9.22;69.65
78855;BME280;68206;59.956;30.234;2023-03-23T07:32:04;99462.91;;;9.25;69.57
78855;BME280;68206;59.956;30.234;2023-03-23T07:34:32;99461.88;;;9.29;69.39
78855;BME280;68206;59.956;30.234;2023-03-23T07:37:11;99469.66;;;9.32;69.41
78855;BME280;68206;59.956;30.234;2023-03-23T07:39:41;99458.97;;;9.36;68.82
78855;BME280;68206;59.956;30.234;2023-03-23T07:42:09;99462.25;;;9.41;68.05
78855;BME280;68206;59.956;30.234;2023-03-23T07:44:47;99454.97;;;9.46;67.86
78855;BME280;68206;59.956;30.234;2023-03-23T07:47:14;99453.88;;;9.50;67.41
78855;BME280;68206;59.956;30.234;2023-03-23T07:49:45;99460.84;;;9.52;66.90
78855;BME280;68206;59.956;30.234;2023-03-23T07:52:26;99460.50;;;9.60;65.27
78855;BME280;68206;59.956;30.234;2023-03-23T07:54:53;99466.38;;;9.66;64.81
78855;BME280;68206;59.956;30.234;2023-03-23T07:57:40;99467.06;;;9.70;64.54
78855;BME280;68206;59.956;30.234;2023-03-23T08:00:10;99460.50;;;9.79;63.40
78855;BME280;68206;59.956;30.234;2023-03-23T08:02:43;99467.72;;;9.75;63.50
78855;BME280;68206;59.956;30.234;2023-03-23T08:05:34;99466.78;;;9.76;62.73
78855;BME280;68206;59.956;30.234;2023-03-23T08:08:26;99462.88;;;9.85;62.47
78855;BME280;68206;59.956;30.234;2023-03-23T08:11:11;99458.91;;;9.93;61.84
78855;BME280;68206;59.956;30.234;2023-03-23T08:13:40;99459.72;;;9.95;61.84
78855;BME280;68206;59.956;30.234;2023-03-23T08:16:19;99465.16;;;9.92;61.48
78855;BME280;68206;59.956;30.234;2023-03-23T08:19:12;99474.97;;;9.90;61.56
78855;BME280;68206;59.956;30.234;2023-03-23T08:21:58;99477.63;;;9.90;60.39
78855;BME280;68206;59.956;30.234;2023-03-23T08:24:52;99468.00;;;9.88;60.90
78855;BME280;68206;59.956;30.234;2023-03-23T08:27:54;99466.38;;;9.85;60.81
78855;BME280;68206;59.956;30.234;2023-03-23T08:30:40;99462.72;;;9.88;60.66
78855;BME280;68206;59.956;30.234;2023-03-23T08:33:35;99463.44;;;9.91;60.50
78855;BME280;68206;59.956;30.234;2023-03-23T08:36:21;99457.34;;;9.89;59.79
78855;BME280;68206;59.956;30.234;2023-03-23T08:39:08;99445.66;;;9.93;60.72
78855;BME280;68206;59.956;30.234;2023-03-23T08:41:55;99448.91;;;10.00;59.76
78855;BME280;68206;59.956;30.234;2023-03-23T08:44:41;99443.53;;;10.20;59.11
78855;BME280;68206;59.956;30.234;2023-03-23T08:47:28;99443.41;;;10.23;59.00
78855;BME280;68206;59.956;30.234;2023-03-23T08:50:15;99444.09;;;10.27;58.60
78855;BME280;68206;59.956;30.234;2023-03-23T08:53:00;99447.09;;;10.38;58.71
78855;BME280;68206;59.956;30.234;2023-03-23T08:55:39;99449.91;;;10.52;58.29
78855;BME280;68206;59.956;30.234;2023-03-23T08:58:12;99456.88;;;10.72;57.00
78855;BME280;68206;59.956;30.234;2023-03-23T09:00:57;99428.50;;;10.91;56.33
78855;BME280;68206;59.956;30.234;2023-03-23T09:03:47;99431.78;;;10.79;54.91
78855;BME280;68206;59.956;30.234;2023-03-23T09:06:36;99441.34;;;10.81;54.67
78855;BME280;68206;59.956;30.234;2023-03-23T09:09:04;99429.44;;;10.90;53.98
78855;BME280;68206;59.956;30.234;2023-03-23T09:11:32;99408.91;;;10.93;53.06
78855;BME280;68206;59.956;30.234;2023-03-23T09:14:00;99445.81;;;10.98;53.65
78855;BME280;68206;59.956;30.234;2023-03-23T09:16:27;99438.41;;;11.05;52.86
78855;BME280;68206;59.956;30.234;2023-03-23T09:18:55;99423.50;;;11.02;52.36
78855;BME280;68206;59.956;30.234;2023-03-23T09:21:24;99410.84;;;11.07;53.28
78855;BME280;68206;59.956;30.234;2023-03-23T09:23:53;99441.66;;;11.10;53.41
78855;BME280;68206;59.956;30.234;2023-03-23T09:26:24;99445.41;;;11.23;53.48
78855;BME280;68206;59.956;30.234;2023-03-23T09:28:51;99426.19;;;11.35;52.61
78855;BME280;68206;59.956;30.234;2023-03-23T09:31:19;99422.25;;;11.42;52.84
78855;BME280;68206;59.956;30.234;2023-03-23T09:33:48;99438.22;;;11.58;52.39
78855;BME280;68206;59.956;30.234;2023-03-23T09:36:17;99440.94;;;11.56;52.48
78855;BME280;68206;59.956;30.234;2023-03-23T09:38:47;99447.41;;;11.68;51.61
78855;BME280;68206;59.956;30.234;2023-03-23T09:41:33;99437.38;;;11.73;51.42
78855;BME280;68206;59.956;30.234;2023-03-23T09:44:07;99438.09;;;11.77;51.58
78855;BME280;68206;59.956;30.234;2023-03-23T09:46:49;99444.00;;;11.82;51.65
78855;BME280;68206;59.956;30.234;2023-03-23T09:49:21;99456.00;;;11.89;51.48
78855;BME280;68206;59.956;30.234;2023-03-23T09:51:51;99448.41;;;11.98;52.13
78855;BME280;68206;59.956;30.234;2023-03-23T09:54:22;99445.50;;;12.03;51.47
78855;BME280;68206;59.956;30.234;2023-03-23T09:56:51;99448.16;;;12.03;51.25
78855;BME280;68206;59.956;30.234;2023-03-23T09:59:21;99450.97;;;12.00;51.42
78855;BME280;68206;59.956;30.234;2023-03-23T10:01:52;99439.31;;;12.02;50.91
78855;BME280;68206;59.956;30.234;2023-03-23T10:04:28;99435.53;;;12.06;51.15
78855;BME280;68206;59.956;30.234;2023-03-23T10:06:59;99436.59;;;12.04;51.47
78855;BME280;68206;59.956;30.234;2023-03-23T10:09:32;99446.88;;;12.10;51.33
78855;BME280;68206;59.956;30.234;2023-03-23T10:12:06;99444.53;;;12.20;50.81
78855;BME280;68206;59.956;30.234;2023-03-23T10:14:48;99445.91;;;12.27;50.26
78855;BME280;68206;59.956;30.234;2023-03-23T10:17:23;99449.81;;;12.51;49.47
78855;BME280;68206;59.956;30.234;2023-03-23T10:19:59;99448.38;;;12.61;49.59
78855;BME280;68206;59.956;30.234;2023-03-23T10:22:32;99453.75;;;12.60;49.00
78855;BME280;68206;59.956;30.234;2023-03-23T10:25:06;99448.59;;;12.57;49.16
78855;BME280;68206;59.956;30.234;2023-03-23T10:27:45;99440.41;;;12.45;49.12
78855;BME280;68206;59.956;30.234;2023-03-23T10:30:23;99442.03;;;12.48;49.58
78855;BME280;68206;59.956;30.234;2023-03-23T10:32:55;99444.16;;;12.57;49.33
78855;BME280;68206;59.956;30.234;2023-03-23T10:35:26;99436.66;;;12.64;48.89
78855;BME280;68206;59.956;30.234;2023-03-23T10:37:59;99437.09;;;12.56;48.98
78855;BME280;68206;59.956;30.234;2023-03-23T10:40:29;99430.34;;;12.50;48.44
78855;BME280;68206;59.956;30.234;2023-03-23T10:42:58;99433.38;;;12.44;47.81
78855;BME280;68206;59.956;30.234;2023-03-23T10:45:27;99446.66;;;12.44;47.76
78855;BME280;68206;59.956;30.234;2023-03-23T10:47:57;99437.50;;;12.34;48.35
78855;BME280;68206;59.956;30.234;2023-03-23T10:50:28;99438.13;;;12.24;47.89
78855;BME280;68206;59.956;30.234;2023-03-23T10:52:58;99437.34;;;12.06;47.98
78855;BME280;68206;59.956;30.234;2023-03-23T10:55:36;99429.69;;;12.00;48.03
78855;BME280;68206;59.956;30.234;2023-03-23T10:58:06;99415.81;;;11.95;48.18
78855;BME280;68206;59.956;30.234;2023-03-23T11:00:41;99438.69;;;11.82;48.72
78855;BME280;68206;59.956;30.234;2023-03-23T11:03:24;99433.00;;;11.72;48.56
78855;BME280;68206;59.956;30.234;2023-03-23T11:05:56;99431.69;;;11.63;48.74
78855;BME280;68206;59.956;30.234;2023-03-23T11:08:26;99443.78;;;11.53;50.59
78855;BME280;68206;59.956;30.234;2023-03-23T11:10:57;99436.91;;;11.49;49.85
78855;BME280;68206;59.956;30.234;2023-03-23T11:13:31;99410.78;;;11.42;50.16
78855;BME280;68206;59.956;30.234;2023-03-23T11:15:59;99409.31;;;11.36;50.87
78855;BME280;68206;59.956;30.234;2023-03-23T11:18:34;99417.81;;;11.25;51.08
78855;BME280;68206;59.956;30.234;2023-03-23T11:21:03;99427.16;;;11.17;51.31
78855;BME280;68206;59.956;30.234;2023-03-23T11:23:34;99426.53;;;11.12;50.59
78855;BME280;68206;59.956;30.234;2023-03-23T11:26:12;99425.13;;;11.05;50.26
78855;BME280;68206;59.956;30.234;2023-03-23T11:28:46;99425.47;;;10.99;51.31
78855;BME280;68206;59.956;30.234;2023-03-23T11:31:15;99433.41;;;10.99;51.50
78855;BME280;68206;59.956;30.234;2023-03-23T11:33:52;99432.44;;;11.00;50.57
78855;BME280;68206;59.956;30.234;2023-03-23T11:36:20;99418.44;;;10.98;51.26
78855;BME280;68206;59.956;30.234;2023-03-23T11:38:53;99432.69;;;10.95;51.67
78855;BME280;68206;59.956;30.234;2023-03-23T11:41:23;99439.91;;;10.93;51.38
78855;BME280;68206;59.956;30.234;2023-03-23T11:43:52;99428.09;;;10.99;50.84
78855;BME280;68206;59.956;30.234;2023-03-23T11:46:29;99416.53;;;11.00;51.29
78855;BME280;68206;59.956;30.234;2023-03-23T11:49:01;99417.31;;;11.02;51.36
78855;BME280;68206;59.956;30.234;2023-03-23T11:51:34;99423.50;;;11.02;51.16
78855;BME280;68206;59.956;30.234;2023-03-23T11:54:09;99417.81;;;10.93;50.56
78855;BME280;68206;59.956;30.234;2023-03-23T11:56:39;99426.84;;;10.88;52.10
78855;BME280;68206;59.956;30.234;2023-03-23T11:59:11;99432.47;;;10.82;51.54
78855;BME280;68206;59.956;30.234;2023-03-23T12:01:49;99439.56;;;10.82;51.46
78855;BME280;68206;59.956;30.234;2023-03-23T12:04:39;99429.19;;;10.77;51.30
78855;BME280;68206;59.956;30.234;2023-03-23T12:07:18;99406.25;;;10.76;51.90
78855;BME280;68206;59.956;30.234;2023-03-23T12:09:55;99397.75;;;10.70;51.59
78855;BME280;68206;59.956;30.234;2023-03-23T12:12:32;99405.16;;;10.63;51.33
78855;BME280;68206;59.956;30.234;2023-03-23T12:15:10;99415.88;;;10.62;51.64
78855;BME280;68206;59.956;30.234;2023-03-23T12:17:47;99415.94;;;10.60;51.63
78855;BME280;68206;59.956;30.234;2023-03-23T12:20:24;99416.25;;;10.54;51.80
78855;BME280;68206;59.956;30.234;2023-03-23T12:23:02;99417.97;;;10.55;51.33
78855;BME280;68206;59.956;30.234;2023-03-23T12:28:37;99417.13;;;10.55;51.81
78855;BME280;68206;59.956;30.234;2023-03-23T12:31:14;99417.97;;;10.55;51.50
78855;BME280;68206;59.956;30.234;2023-03-23T12:33:50;99413.44;;;10.57;51.46
78855;BME280;68206;59.956;30.234;2023-03-23T12:36:32;99414.47;;;10.55;51.80
78855;BME280;68206;59.956;30.234;2023-03-23T12:39:25;99424.50;;;10.48;51.88
78855;BME280;68206;59.956;30.234;2023-03-23T12:42:03;99423.59;;;10.49;51.45
78855;BME280;68206;59.956;30.234;2023-03-23T12:44:41;99425.28;;;10.50;51.25
78855;BME280;68206;59.956;30.234;2023-03-23T12:47:29;99423.41;;;10.52;50.94
78855;BME280;68206;59.956;30.234;2023-03-23T12:50:01;99423.28;;;10.55;50.27
78855;BME280;68206;59.956;30.234;2023-03-23T12:52:33;99425.75;;;10.58;50.52
78855;BME280;68206;59.956;30.234;2023-03-23T12:55:11;99425.31;;;10.67;50.12
78855;BME280;68206;59.956;30.234;2023-03-23T12:57:44;99414.38;;;10.73;49.49
78855;BME280;68206;59.956;30.234;2023-03-23T13:00:21;99433.56;;;10.78;49.65
78855;BME280;68206;59.956;30.234;2023-03-23T13:02:54;99432.47;;;10.82;49.55
78855;BME280;68206;59.956;30.234;2023-03-23T13:05:33;99426.91;;;10.87;49.06
78855;BME280;68206;59.956;30.234;2023-03-23T13:08:06;99426.84;;;10.88;48.17
78855;BME280;68206;59.956;30.234;2023-03-23T13:10:39;99432.94;;;10.90;48.35
78855;BME280;68206;59.956;30.234;2023-03-23T13:13:14;99416.72;;;10.97;47.21
78855;BME280;68206;59.956;30.234;2023-03-23T13:15:54;99416.72;;;10.97;47.70
78855;BME280;68206;59.956;30.234;2023-03-23T13:18:26;99422.09;;;10.95;47.16
78855;BME280;68206;59.956;30.234;2023-03-23T13:21:02;99406.41;;;10.90;47.40
78855;BME280;68206;59.956;30.234;2023-03-23T13:23:36;99394.88;;;10.91;47.21
78855;BME280;68206;59.956;30.234;2023-03-23T13:26:06;99417.09;;;10.89;46.34
78855;BME280;68206;59.956;30.234;2023-03-23T13:28:48;99420.69;;;10.88;46.92
78855;BME280;68206;59.956;30.234;2023-03-23T13:31:20;99418.03;;;10.88;46.89
78855;BME280;68206;59.956;30.234;2023-03-23T13:33:53;99435.75;;;10.87;47.18
78855;BME280;68206;59.956;30.234;2023-03-23T13:36:29;99431.22;;;10.89;46.97
78855;BME280;68206;59.956;30.234;2023-03-23T13:38:57;99430.28;;;10.90;46.87